sensor_id;sensor_type;location;lat;lon;timestamp;P1;durP1;ratioP1;P2;durP2;ratioP2
14692;SDS011;7435;50.842;4.258;2022-10-23T01:47:07;308.90;;;65.30;;
14692;SDS011;7435;50.842;4.258;2022-10-23T01:49:35;315.10;;;67.60;;
14692;SDS011;7435;50.842;4.258;2022-10-23T01:52:05;309.00;;;62.30;;
14692;SDS011;7435;50.842;4.258;2022-10-23T01:54:33;306.80;;;62.80;;
14692;SDS011;7435;50.842;4.258;2022-10-23T01:57:02;304.40;;;62.00;;
14692;SDS011;7435;50.842;4.258;2022-10-23T01:59:30;303.05;;;63.80;;
14692;SDS011;7435;50.842;4.258;2022-10-23T02:02:00;313.70;;;63.20;;
14692;SDS011;7435;50.842;4.258;2022-10-23T02:04:31;311.85;;;65.25;;
14692;SDS011;7435;50.842;4.258;2022-10-23T02:06:59;302.30;;;63.05;;
14692;SDS011;7435;50.842;4.258;2022-10-23T02:09:27;304.75;;;64.00;;
14692;SDS011;7435;50.842;4.258;2022-10-23T02:12:00;312.45;;;67.20;;
14692;SDS011;7435;50.842;4.258;2022-10-23T02:19:23;311.90;;;64.60;;
14692;SDS011;7435;50.842;4.258;2022-10-23T02:26:49;311.80;;;66.00;;
14692;SDS011;7435;50.842;4.258;2022-10-23T02:29:18;310.10;;;61.80;;
14692;SDS011;7435;50.842;4.258;2022-10-23T02:34:15;300.10;;;60.40;;
14692;SDS011;7435;50.842;4.258;2022-10-23T02:39:10;303.60;;;63.80;;
14692;SDS011;7435;50.842;4.258;2022-10-23T02:53:55;312.00;;;64.20;;
14692;SDS011;7435;50.842;4.258;2022-10-23T02:56:27;312.10;;;65.10;;
14692;SDS011;7435;50.842;4.258;2022-10-23T03:03:51;310.75;;;66.20;;
14692;SDS011;7435;50.842;4.258;2022-10-23T03:06:19;307.50;;;66.60;;
14692;SDS011;7435;50.842;4.258;2022-10-23T03:08:48;305.90;;;66.45;;
14692;SDS011;7435;50.842;4.258;2022-10-23T03:11:16;310.60;;;68.20;;
14692;SDS011;7435;50.842;4.258;2022-10-23T03:13:44;307.80;;;65.17;;
14692;SDS011;7435;50.842;4.258;2022-10-23T03:16:11;317.10;;;70.30;;
14692;SDS011;7435;50.842;4.258;2022-10-23T03:18:38;313.00;;;69.00;;
14692;SDS011;7435;50.842;4.258;2022-10-23T03:21:05;306.40;;;67.70;;
14692;SDS011;7435;50.842;4.258;2022-10-23T03:23:33;304.70;;;65.60;;
14692;SDS011;7435;50.842;4.258;2022-10-23T03:26:00;308.15;;;64.45;;
14692;SDS011;7435;50.842;4.258;2022-10-23T03:28:29;305.40;;;64.20;;
14692;SDS011;7435;50.842;4.258;2022-10-23T03:33:26;305.10;;;64.85;;
14692;SDS011;7435;50.842;4.258;2022-10-23T03:38:20;311.00;;;65.60;;
14692;SDS011;7435;50.842;4.258;2022-10-23T04:44:32;301.90;;;65.10;;
14692;SDS011;7435;50.842;4.258;2022-10-23T04:46:59;306.00;;;67.30;;
14692;SDS011;7435;50.842;4.258;2022-10-23T05:01:45;742.30;;;66.70;;
14692;SDS011;7435;50.842;4.258;2022-10-23T05:18:56;312.05;;;67.65;;
14692;SDS011;7435;50.842;4.258;2022-10-23T05:26:18;306.80;;;66.90;;
14692;SDS011;7435;50.842;4.258;2022-10-23T05:28:46;310.55;;;68.75;;
14692;SDS011;7435;50.842;4.258;2022-10-23T05:31:13;309.15;;;68.45;;
14692;SDS011;7435;50.842;4.258;2022-10-23T05:33:41;310.95;;;67.90;;
14692;SDS011;7435;50.842;4.258;2022-10-23T05:36:09;318.60;;;71.05;;
14692;SDS011;7435;50.842;4.258;2022-10-23T05:41:05;310.60;;;66.10;;
14692;SDS011;7435;50.842;4.258;2022-10-23T05:43:32;311.75;;;68.30;;
14692;SDS011;7435;50.842;4.258;2022-10-23T05:46:02;306.80;;;66.70;;
14692;SDS011;7435;50.842;4.258;2022-10-23T05:48:29;314.30;;;67.50;;
14692;SDS011;7435;50.842;4.258;2022-10-23T05:51:00;305.75;;;67.95;;
14692;SDS011;7435;50.842;4.258;2022-10-23T05:56:00;303.60;;;63.40;;
14692;SDS011;7435;50.842;4.258;2022-10-23T07:21:51;306.40;;;67.70;;
14692;SDS011;7435;50.842;4.258;2022-10-23T07:36:43;310.50;;;67.70;;
14692;SDS011;7435;50.842;4.258;2022-10-23T07:41:39;314.40;;;68.30;;
14692;SDS011;7435;50.842;4.258;2022-10-23T08:52:49;306.80;;;64.30;;
14692;SDS011;7435;50.842;4.258;2022-10-23T08:55:20;308.20;;;67.10;;
14692;SDS011;7435;50.842;4.258;2022-10-23T08:57:50;305.90;;;67.20;;
14692;SDS011;7435;50.842;4.258;2022-10-23T09:00:19;311.57;;;68.70;;
14692;SDS011;7435;50.842;4.258;2022-10-23T09:02:47;303.05;;;65.10;;
14692;SDS011;7435;50.842;4.258;2022-10-23T09:05:16;312.70;;;67.40;;
14692;SDS011;7435;50.842;4.258;2022-10-23T09:07:49;306.40;;;64.70;;
14692;SDS011;7435;50.842;4.258;2022-10-23T09:12:45;317.10;;;69.30;;
14692;SDS011;7435;50.842;4.258;2022-10-23T09:27:28;311.60;;;65.00;;
14692;SDS011;7435;50.842;4.258;2022-10-23T09:29:55;307.30;;;66.00;;
14692;SDS011;7435;50.842;4.258;2022-10-23T09:37:20;310.45;;;64.80;;
14692;SDS011;7435;50.842;4.258;2022-10-23T09:47:09;306.50;;;64.70;;
14692;SDS011;7435;50.842;4.258;2022-10-23T09:52:04;316.55;;;68.95;;
14692;SDS011;7435;50.842;4.258;2022-10-23T09:54:33;322.05;;;72.05;;
14692;SDS011;7435;50.842;4.258;2022-10-23T10:48:47;306.30;;;68.00;;
14692;SDS011;7435;50.842;4.258;2022-10-23T10:51:18;313.80;;;67.00;;
14692;SDS011;7435;50.842;4.258;2022-10-23T10:53:51;326.05;;;73.85;;
14692;SDS011;7435;50.842;4.258;2022-10-23T11:54:25;316.73;;;75.93;;
14692;SDS011;7435;50.842;4.258;2022-10-23T11:56:54;319.43;;;80.33;;
14692;SDS011;7435;50.842;4.258;2022-10-23T11:59:24;307.02;;;67.78;;
14692;SDS011;7435;50.842;4.258;2022-10-23T12:01:52;303.88;;;67.78;;
14692;SDS011;7435;50.842;4.258;2022-10-23T12:04:21;303.17;;;68.43;;
14692;SDS011;7435;50.842;4.258;2022-10-23T12:06:50;312.30;;;69.50;;
14692;SDS011;7435;50.842;4.258;2022-10-23T12:09:27;313.40;;;69.40;;
14692;SDS011;7435;50.842;4.258;2022-10-23T12:12:14;303.30;;;65.50;;
14692;SDS011;7435;50.842;4.258;2022-10-23T12:14:44;313.43;;;68.60;;
14692;SDS011;7435;50.842;4.258;2022-10-23T12:17:19;318.10;;;72.10;;
14692;SDS011;7435;50.842;4.258;2022-10-23T12:19:52;306.50;;;68.70;;
14692;SDS011;7435;50.842;4.258;2022-10-23T12:22:20;308.90;;;67.75;;
14692;SDS011;7435;50.842;4.258;2022-10-23T12:24:56;311.30;;;70.15;;
14692;SDS011;7435;50.842;4.258;2022-10-23T12:29:55;303.40;;;63.70;;
14692;SDS011;7435;50.842;4.258;2022-10-23T12:32:34;309.80;;;63.90;;
14692;SDS011;7435;50.842;4.258;2022-10-23T12:35:14;320.30;;;71.80;;
14692;SDS011;7435;50.842;4.258;2022-10-23T12:37:53;306.30;;;66.80;;
14692;SDS011;7435;50.842;4.258;2022-10-23T12:40:23;320.03;;;72.47;;
14692;SDS011;7435;50.842;4.258;2022-10-23T12:42:54;305.23;;;65.87;;
14692;SDS011;7435;50.842;4.258;2022-10-23T12:45:22;317.55;;;71.50;;
14692;SDS011;7435;50.842;4.258;2022-10-23T12:47:50;304.33;;;64.63;;
14692;SDS011;7435;50.842;4.258;2022-10-23T12:50:18;304.63;;;64.75;;
14692;SDS011;7435;50.842;4.258;2022-10-23T12:52:50;302.60;;;63.70;;
14692;SDS011;7435;50.842;4.258;2022-10-23T12:55:17;314.37;;;68.43;;
14692;SDS011;7435;50.842;4.258;2022-10-23T12:57:46;316.27;;;70.03;;
14692;SDS011;7435;50.842;4.258;2022-10-23T13:00:14;303.15;;;66.45;;
14692;SDS011;7435;50.842;4.258;2022-10-23T13:02:41;313.08;;;72.47;;
14692;SDS011;7435;50.842;4.258;2022-10-23T13:05:10;318.40;;;72.90;;
14692;SDS011;7435;50.842;4.258;2022-10-23T13:07:41;316.23;;;70.83;;
14692;SDS011;7435;50.842;4.258;2022-10-23T13:10:10;307.40;;;67.10;;
14692;SDS011;7435;50.842;4.258;2022-10-23T13:12:39;311.60;;;67.82;;
14692;SDS011;7435;50.842;4.258;2022-10-23T13:15:16;316.50;;;69.45;;
14692;SDS011;7435;50.842;4.258;2022-10-23T13:17:44;311.97;;;67.73;;
14692;SDS011;7435;50.842;4.258;2022-10-23T13:20:18;304.80;;;64.97;;
14692;SDS011;7435;50.842;4.258;2022-10-23T13:25:22;310.33;;;69.47;;
14692;SDS011;7435;50.842;4.258;2022-10-23T13:27:49;312.63;;;66.63;;
14692;SDS011;7435;50.842;4.258;2022-10-23T13:30:28;304.10;;;63.87;;
14692;SDS011;7435;50.842;4.258;2022-10-23T13:32:55;306.20;;;66.00;;
14692;SDS011;7435;50.842;4.258;2022-10-23T13:35:22;299.45;;;63.50;;
14692;SDS011;7435;50.842;4.258;2022-10-23T13:37:50;304.70;;;68.35;;
14692;SDS011;7435;50.842;4.258;2022-10-23T13:40:21;304.95;;;68.43;;
14692;SDS011;7435;50.842;4.258;2022-10-23T13:42:49;302.40;;;65.22;;
14692;SDS011;7435;50.842;4.258;2022-10-23T13:45:17;299.87;;;65.17;;
14692;SDS011;7435;50.842;4.258;2022-10-23T13:47:46;299.98;;;63.25;;
14692;SDS011;7435;50.842;4.258;2022-10-23T13:50:14;308.07;;;67.37;;
14692;SDS011;7435;50.842;4.258;2022-10-23T13:52:41;298.42;;;63.13;;
14692;SDS011;7435;50.842;4.258;2022-10-23T13:55:11;307.95;;;68.75;;
14692;SDS011;7435;50.842;4.258;2022-10-23T13:57:41;305.42;;;66.28;;
14692;SDS011;7435;50.842;4.258;2022-10-23T14:00:09;311.57;;;71.57;;
14692;SDS011;7435;50.842;4.258;2022-10-23T14:02:36;304.90;;;67.80;;
14692;SDS011;7435;50.842;4.258;2022-10-23T14:05:05;316.70;;;75.30;;
14692;SDS011;7435;50.842;4.258;2022-10-23T14:07:32;311.43;;;70.73;;
14692;SDS011;7435;50.842;4.258;2022-10-23T14:09:59;313.70;;;71.28;;
14692;SDS011;7435;50.842;4.258;2022-10-23T14:12:26;302.67;;;67.65;;
14692;SDS011;7435;50.842;4.258;2022-10-23T14:14:54;299.90;;;64.40;;
14692;SDS011;7435;50.842;4.258;2022-10-23T14:17:21;306.85;;;64.57;;
14692;SDS011;7435;50.842;4.258;2022-10-23T14:19:48;309.60;;;65.97;;
14692;SDS011;7435;50.842;4.258;2022-10-23T14:22:16;305.48;;;65.93;;
14692;SDS011;7435;50.842;4.258;2022-10-23T14:24:44;310.15;;;65.50;;
14692;SDS011;7435;50.842;4.258;2022-10-23T14:27:11;300.33;;;64.15;;
14692;SDS011;7435;50.842;4.258;2022-10-23T14:29:38;302.70;;;64.13;;
14692;SDS011;7435;50.842;4.258;2022-10-23T14:32:06;300.52;;;62.53;;
14692;SDS011;7435;50.842;4.258;2022-10-23T14:34:33;310.10;;;68.88;;
14692;SDS011;7435;50.842;4.258;2022-10-23T14:37:00;309.77;;;66.17;;
14692;SDS011;7435;50.842;4.258;2022-10-23T14:39:29;307.42;;;66.80;;
14692;SDS011;7435;50.842;4.258;2022-10-23T14:41:56;297.40;;;63.15;;
14692;SDS011;7435;50.842;4.258;2022-10-23T14:44:23;301.35;;;65.35;;
14692;SDS011;7435;50.842;4.258;2022-10-23T14:46:51;302.10;;;63.97;;
14692;SDS011;7435;50.842;4.258;2022-10-23T14:49:18;305.10;;;66.70;;
14692;SDS011;7435;50.842;4.258;2022-10-23T14:51:45;297.30;;;59.90;;
14692;SDS011;7435;50.842;4.258;2022-10-23T14:54:13;300.50;;;61.90;;
14692;SDS011;7435;50.842;4.258;2022-10-23T14:56:42;308.70;;;64.20;;
14692;SDS011;7435;50.842;4.258;2022-10-23T14:59:09;300.43;;;62.27;;
14692;SDS011;7435;50.842;4.258;2022-10-23T15:01:39;298.67;;;62.88;;
14692;SDS011;7435;50.842;4.258;2022-10-23T15:04:07;299.77;;;61.63;;
14692;SDS011;7435;50.842;4.258;2022-10-23T15:06:34;302.93;;;64.10;;
14692;SDS011;7435;50.842;4.258;2022-10-23T15:09:02;305.52;;;63.63;;
14692;SDS011;7435;50.842;4.258;2022-10-23T15:11:30;303.02;;;64.88;;
14692;SDS011;7435;50.842;4.258;2022-10-23T15:13:58;302.85;;;66.53;;
14692;SDS011;7435;50.842;4.258;2022-10-23T15:16:26;296.27;;;62.72;;
14692;SDS011;7435;50.842;4.258;2022-10-23T15:18:53;307.58;;;65.68;;
14692;SDS011;7435;50.842;4.258;2022-10-23T15:21:20;313.27;;;70.45;;
14692;SDS011;7435;50.842;4.258;2022-10-23T15:23:48;313.65;;;70.53;;
14692;SDS011;7435;50.842;4.258;2022-10-23T15:26:15;300.13;;;67.22;;
14692;SDS011;7435;50.842;4.258;2022-10-23T15:28:45;299.55;;;62.25;;
14692;SDS011;7435;50.842;4.258;2022-10-23T15:34:03;311.08;;;67.55;;
14692;SDS011;7435;50.842;4.258;2022-10-23T15:36:31;303.00;;;65.15;;
14692;SDS011;7435;50.842;4.258;2022-10-23T15:38:58;297.70;;;61.70;;
14692;SDS011;7435;50.842;4.258;2022-10-23T15:41:26;302.27;;;64.25;;
14692;SDS011;7435;50.842;4.258;2022-10-23T15:43:54;306.52;;;66.25;;
14692;SDS011;7435;50.842;4.258;2022-10-23T15:46:21;301.13;;;64.53;;
14692;SDS011;7435;50.842;4.258;2022-10-23T15:48:48;306.05;;;65.53;;
14692;SDS011;7435;50.842;4.258;2022-10-23T15:51:17;297.93;;;63.43;;
14692;SDS011;7435;50.842;4.258;2022-10-23T15:53:44;302.23;;;63.23;;
14692;SDS011;7435;50.842;4.258;2022-10-23T15:56:11;302.80;;;63.80;;
14692;SDS011;7435;50.842;4.258;2022-10-23T15:58:38;307.13;;;64.38;;
14692;SDS011;7435;50.842;4.258;2022-10-23T16:01:06;306.23;;;64.00;;
14692;SDS011;7435;50.842;4.258;2022-10-23T16:03:33;316.17;;;68.93;;
14692;SDS011;7435;50.842;4.258;2022-10-23T16:06:01;305.27;;;63.03;;
14692;SDS011;7435;50.842;4.258;2022-10-23T16:08:33;305.42;;;63.80;;
14692;SDS011;7435;50.842;4.258;2022-10-23T16:11:00;299.93;;;62.13;;
14692;SDS011;7435;50.842;4.258;2022-10-23T16:13:27;315.45;;;67.00;;
14692;SDS011;7435;50.842;4.258;2022-10-23T16:15:55;297.15;;;58.75;;
14692;SDS011;7435;50.842;4.258;2022-10-23T16:18:22;299.27;;;59.70;;
14692;SDS011;7435;50.842;4.258;2022-10-23T16:20:49;303.47;;;61.77;;
14692;SDS011;7435;50.842;4.258;2022-10-23T16:23:19;311.92;;;66.90;;
14692;SDS011;7435;50.842;4.258;2022-10-23T16:25:47;307.15;;;66.32;;
14692;SDS011;7435;50.842;4.258;2022-10-23T16:28:15;307.10;;;64.45;;
14692;SDS011;7435;50.842;4.258;2022-10-23T16:30:42;311.93;;;63.90;;
14692;SDS011;7435;50.842;4.258;2022-10-23T16:33:10;300.08;;;61.28;;
14692;SDS011;7435;50.842;4.258;2022-10-23T16:35:38;313.73;;;64.50;;
14692;SDS011;7435;50.842;4.258;2022-10-23T16:38:05;302.30;;;63.90;;
14692;SDS011;7435;50.842;4.258;2022-10-23T16:40:32;298.67;;;61.85;;
14692;SDS011;7435;50.842;4.258;2022-10-23T16:43:01;302.65;;;63.80;;
14692;SDS011;7435;50.842;4.258;2022-10-23T16:45:28;300.13;;;61.63;;
14692;SDS011;7435;50.842;4.258;2022-10-23T16:47:56;299.20;;;59.23;;
14692;SDS011;7435;50.842;4.258;2022-10-23T16:50:23;300.70;;;62.20;;
14692;SDS011;7435;50.842;4.258;2022-10-23T16:52:50;300.80;;;62.80;;
14692;SDS011;7435;50.842;4.258;2022-10-23T16:55:18;308.87;;;66.73;;
14692;SDS011;7435;50.842;4.258;2022-10-23T16:57:45;311.80;;;64.63;;
14692;SDS011;7435;50.842;4.258;2022-10-23T17:00:13;302.00;;;61.30;;
14692;SDS011;7435;50.842;4.258;2022-10-23T17:02:45;306.95;;;63.95;;
14692;SDS011;7435;50.842;4.258;2022-10-23T17:05:13;310.80;;;65.20;;
14692;SDS011;7435;50.842;4.258;2022-10-23T17:07:40;313.30;;;65.60;;
14692;SDS011;7435;50.842;4.258;2022-10-23T17:10:07;306.23;;;67.13;;
14692;SDS011;7435;50.842;4.258;2022-10-23T17:12:34;306.73;;;65.50;;
14692;SDS011;7435;50.842;4.258;2022-10-23T17:15:02;297.80;;;60.10;;
14692;SDS011;7435;50.842;4.258;2022-10-23T17:17:30;306.67;;;64.05;;
14692;SDS011;7435;50.842;4.258;2022-10-23T17:19:57;299.85;;;58.90;;
14692;SDS011;7435;50.842;4.258;2022-10-23T17:22:25;307.83;;;65.13;;
14692;SDS011;7435;50.842;4.258;2022-10-23T17:24:52;313.70;;;64.50;;
14692;SDS011;7435;50.842;4.258;2022-10-23T17:29:46;301.35;;;60.15;;
14692;SDS011;7435;50.842;4.258;2022-10-23T17:32:13;307.50;;;63.55;;
14692;SDS011;7435;50.842;4.258;2022-10-23T17:34:41;306.40;;;63.70;;
14692;SDS011;7435;50.842;4.258;2022-10-23T17:37:11;295.80;;;59.30;;
14692;SDS011;7435;50.842;4.258;2022-10-23T17:39:38;303.40;;;62.50;;
14692;SDS011;7435;50.842;4.258;2022-10-23T17:42:06;299.90;;;59.80;;
14692;SDS011;7435;50.842;4.258;2022-10-23T17:44:33;302.90;;;61.80;;
14692;SDS011;7435;50.842;4.258;2022-10-23T17:47:00;301.40;;;62.00;;
14692;SDS011;7435;50.842;4.258;2022-10-23T17:51:56;310.15;;;64.95;;
14692;SDS011;7435;50.842;4.258;2022-10-23T17:56:50;300.05;;;61.63;;
14692;SDS011;7435;50.842;4.258;2022-10-23T18:01:44;308.40;;;63.60;;
14692;SDS011;7435;50.842;4.258;2022-10-23T18:04:11;299.90;;;63.10;;
14692;SDS011;7435;50.842;4.258;2022-10-23T18:06:40;301.20;;;63.05;;
14692;SDS011;7435;50.842;4.258;2022-10-23T18:14:04;303.80;;;60.50;;
14692;SDS011;7435;50.842;4.258;2022-10-23T18:16:31;308.20;;;63.55;;
14692;SDS011;7435;50.842;4.258;2022-10-23T18:19:00;307.80;;;61.45;;
14692;SDS011;7435;50.842;4.258;2022-10-23T18:21:28;303.20;;;65.35;;
14692;SDS011;7435;50.842;4.258;2022-10-23T18:26:23;305.45;;;64.90;;
14692;SDS011;7435;50.842;4.258;2022-10-23T18:28:52;301.60;;;63.20;;
14692;SDS011;7435;50.842;4.258;2022-10-23T18:31:21;311.30;;;68.35;;
14692;SDS011;7435;50.842;4.258;2022-10-23T18:33:49;302.17;;;65.67;;
14692;SDS011;7435;50.842;4.258;2022-10-23T18:36:17;313.65;;;72.30;;
14692;SDS011;7435;50.842;4.258;2022-10-23T18:38:45;310.70;;;69.55;;
14692;SDS011;7435;50.842;4.258;2022-10-23T18:41:13;303.50;;;65.20;;
14692;SDS011;7435;50.842;4.258;2022-10-23T18:43:40;304.50;;;66.40;;
14692;SDS011;7435;50.842;4.258;2022-10-23T18:48:36;305.10;;;67.55;;
14692;SDS011;7435;50.842;4.258;2022-10-23T18:51:03;303.90;;;68.40;;
14692;SDS011;7435;50.842;4.258;2022-10-23T18:53:31;301.97;;;69.83;;
14692;SDS011;7435;50.842;4.258;2022-10-23T18:56:01;307.95;;;70.40;;
14692;SDS011;7435;50.842;4.258;2022-10-23T18:58:28;318.90;;;75.50;;
14692;SDS011;7435;50.842;4.258;2022-10-23T19:00:55;307.57;;;70.57;;
14692;SDS011;7435;50.842;4.258;2022-10-23T19:03:22;309.03;;;72.33;;
14692;SDS011;7435;50.842;4.258;2022-10-23T19:05:51;304.10;;;70.17;;
14692;SDS011;7435;50.842;4.258;2022-10-23T19:08:18;319.80;;;75.67;;
14692;SDS011;7435;50.842;4.258;2022-10-23T19:10:46;317.02;;;77.20;;
14692;SDS011;7435;50.842;4.258;2022-10-23T19:13:13;310.80;;;74.77;;
14692;SDS011;7435;50.842;4.258;2022-10-23T19:15:41;305.90;;;72.47;;
14692;SDS011;7435;50.842;4.258;2022-10-23T19:18:09;313.95;;;77.05;;
14692;SDS011;7435;50.842;4.258;2022-10-23T19:20:36;313.17;;;74.68;;
14692;SDS011;7435;50.842;4.258;2022-10-23T19:23:05;313.10;;;76.60;;
14692;SDS011;7435;50.842;4.258;2022-10-23T19:25:33;313.67;;;77.60;;
14692;SDS011;7435;50.842;4.258;2022-10-23T19:28:02;321.02;;;80.68;;
14692;SDS011;7435;50.842;4.258;2022-10-23T19:30:29;311.67;;;75.43;;
14692;SDS011;7435;50.842;4.258;2022-10-23T19:32:57;316.05;;;76.22;;
14692;SDS011;7435;50.842;4.258;2022-10-23T19:35:24;315.08;;;79.13;;
14692;SDS011;7435;50.842;4.258;2022-10-23T19:37:51;309.57;;;72.93;;
14692;SDS011;7435;50.842;4.258;2022-10-23T19:40:20;315.97;;;77.27;;
14692;SDS011;7435;50.842;4.258;2022-10-23T19:42:48;313.25;;;74.43;;
14692;SDS011;7435;50.842;4.258;2022-10-23T19:45:15;316.73;;;72.93;;
14692;SDS011;7435;50.842;4.258;2022-10-23T19:47:42;301.92;;;67.13;;
14692;SDS011;7435;50.842;4.258;2022-10-23T19:50:10;308.75;;;69.20;;
14692;SDS011;7435;50.842;4.258;2022-10-23T19:52:37;313.43;;;73.13;;
14692;SDS011;7435;50.842;4.258;2022-10-23T19:55:05;311.03;;;72.83;;
14692;SDS011;7435;50.842;4.258;2022-10-23T19:57:34;312.37;;;72.83;;
14692;SDS011;7435;50.842;4.258;2022-10-23T20:00:02;306.50;;;71.80;;
14692;SDS011;7435;50.842;4.258;2022-10-23T20:02:31;315.00;;;74.10;;
14692;SDS011;7435;50.842;4.258;2022-10-23T20:04:59;307.40;;;72.77;;
14692;SDS011;7435;50.842;4.258;2022-10-23T20:07:27;312.07;;;75.03;;
14692;SDS011;7435;50.842;4.258;2022-10-23T20:09:54;307.27;;;72.40;;
14692;SDS011;7435;50.842;4.258;2022-10-23T20:12:21;314.00;;;73.83;;
14692;SDS011;7435;50.842;4.258;2022-10-23T20:14:50;314.50;;;76.25;;
14692;SDS011;7435;50.842;4.258;2022-10-23T20:17:19;323.05;;;76.80;;
14692;SDS011;7435;50.842;4.258;2022-10-23T20:19:46;318.15;;;75.32;;
14692;SDS011;7435;50.842;4.258;2022-10-23T20:22:14;306.20;;;73.70;;
14692;SDS011;7435;50.842;4.258;2022-10-23T20:24:41;322.40;;;79.40;;
14692;SDS011;7435;50.842;4.258;2022-10-23T20:27:09;311.80;;;73.67;;
14692;SDS011;7435;50.842;4.258;2022-10-23T20:29:37;315.07;;;75.87;;
14692;SDS011;7435;50.842;4.258;2022-10-23T20:32:06;317.70;;;77.10;;
14692;SDS011;7435;50.842;4.258;2022-10-23T20:34:33;307.25;;;75.55;;
14692;SDS011;7435;50.842;4.258;2022-10-23T20:37:01;310.92;;;74.70;;
14692;SDS011;7435;50.842;4.258;2022-10-23T20:39:28;312.20;;;77.10;;
14692;SDS011;7435;50.842;4.258;2022-10-23T20:41:59;316.65;;;80.15;;
14692;SDS011;7435;50.842;4.258;2022-10-23T20:44:27;310.40;;;78.00;;
14692;SDS011;7435;50.842;4.258;2022-10-23T20:46:55;311.30;;;76.10;;
14692;SDS011;7435;50.842;4.258;2022-10-23T20:49:23;326.35;;;80.85;;
14692;SDS011;7435;50.842;4.258;2022-10-23T20:51:51;321.10;;;79.40;;
14692;SDS011;7435;50.842;4.258;2022-10-23T20:54:19;318.25;;;77.40;;
14692;SDS011;7435;50.842;4.258;2022-10-23T20:56:46;312.50;;;74.00;;
14692;SDS011;7435;50.842;4.258;2022-10-23T20:59:14;323.30;;;78.90;;
14692;SDS011;7435;50.842;4.258;2022-10-23T21:01:43;331.40;;;80.65;;
14692;SDS011;7435;50.842;4.258;2022-10-23T21:04:13;329.80;;;80.30;;
14692;SDS011;7435;50.842;4.258;2022-10-23T21:06:41;317.37;;;79.53;;
14692;SDS011;7435;50.842;4.258;2022-10-23T21:11:36;319.43;;;78.23;;
14692;SDS011;7435;50.842;4.258;2022-10-23T21:14:03;315.50;;;77.00;;
14692;SDS011;7435;50.842;4.258;2022-10-23T21:16:32;318.15;;;78.80;;
14692;SDS011;7435;50.842;4.258;2022-10-23T21:18:59;312.88;;;78.30;;
14692;SDS011;7435;50.842;4.258;2022-10-23T21:21:27;472.30;;;87.50;;
14692;SDS011;7435;50.842;4.258;2022-10-23T21:23:56;311.95;;;75.20;;
14692;SDS011;7435;50.842;4.258;2022-10-23T21:26:24;316.83;;;79.57;;
14692;SDS011;7435;50.842;4.258;2022-10-23T21:28:52;312.33;;;76.63;;
14692;SDS011;7435;50.842;4.258;2022-10-23T21:31:20;315.77;;;78.18;;
14692;SDS011;7435;50.842;4.258;2022-10-23T21:33:47;309.50;;;74.90;;
14692;SDS011;7435;50.842;4.258;2022-10-23T21:36:15;312.43;;;77.50;;
14692;SDS011;7435;50.842;4.258;2022-10-23T21:38:43;318.17;;;77.43;;
14692;SDS011;7435;50.842;4.258;2022-10-23T21:41:12;317.38;;;81.55;;
14692;SDS011;7435;50.842;4.258;2022-10-23T21:43:40;308.35;;;73.80;;
14692;SDS011;7435;50.842;4.258;2022-10-23T21:46:09;313.73;;;76.68;;
14692;SDS011;7435;50.842;4.258;2022-10-23T21:48:36;311.77;;;76.32;;
14692;SDS011;7435;50.842;4.258;2022-10-23T21:51:04;309.02;;;77.28;;
14692;SDS011;7435;50.842;4.258;2022-10-23T21:53:31;313.40;;;77.50;;
14692;SDS011;7435;50.842;4.258;2022-10-23T21:56:00;316.73;;;81.77;;
14692;SDS011;7435;50.842;4.258;2022-10-23T21:58:29;315.17;;;77.70;;
14692;SDS011;7435;50.842;4.258;2022-10-23T22:00:56;317.93;;;78.53;;
14692;SDS011;7435;50.842;4.258;2022-10-23T22:03:23;314.45;;;78.85;;
14692;SDS011;7435;50.842;4.258;2022-10-23T22:05:50;315.23;;;76.65;;
14692;SDS011;7435;50.842;4.258;2022-10-23T22:08:17;314.65;;;75.30;;
14692;SDS011;7435;50.842;4.258;2022-10-23T22:10:45;312.98;;;75.00;;
14692;SDS011;7435;50.842;4.258;2022-10-23T22:13:12;315.93;;;77.63;;
14692;SDS011;7435;50.842;4.258;2022-10-23T22:15:40;310.92;;;74.63;;
14692;SDS011;7435;50.842;4.258;2022-10-23T22:20:34;315.67;;;81.87;;
14692;SDS011;7435;50.842;4.258;2022-10-23T22:23:01;313.53;;;75.53;;
14692;SDS011;7435;50.842;4.258;2022-10-23T22:25:29;309.20;;;72.90;;
14692;SDS011;7435;50.842;4.258;2022-10-23T22:32:51;321.95;;;74.10;;
14692;SDS011;7435;50.842;4.258;2022-10-23T22:35:18;311.20;;;73.30;;
14692;SDS011;7435;50.842;4.258;2022-10-23T22:37:45;315.83;;;76.72;;
14692;SDS011;7435;50.842;4.258;2022-10-23T22:40:13;302.10;;;67.60;;
14692;SDS011;7435;50.842;4.258;2022-10-23T22:57:23;316.30;;;71.00;;
14692;SDS011;7435;50.842;4.258;2022-10-23T22:59:50;311.20;;;69.10;;
14692;SDS011;7435;50.842;4.258;2022-10-23T23:02:17;311.75;;;70.45;;
14692;SDS011;7435;50.842;4.258;2022-10-23T23:07:12;307.20;;;68.40;;
14692;SDS011;7435;50.842;4.258;2022-10-23T23:09:40;306.63;;;70.47;;
14692;SDS011;7435;50.842;4.258;2022-10-23T23:12:08;310.70;;;70.15;;
14692;SDS011;7435;50.842;4.258;2022-10-23T23:14:37;302.10;;;66.50;;
14692;SDS011;7435;50.842;4.258;2022-10-23T23:17:05;308.48;;;70.88;;
14692;SDS011;7435;50.842;4.258;2022-10-23T23:19:32;319.20;;;71.57;;
14692;SDS011;7435;50.842;4.258;2022-10-23T23:21:59;309.00;;;69.80;;
14692;SDS011;7435;50.842;4.258;2022-10-23T23:24:27;307.90;;;66.60;;
14692;SDS011;7435;50.842;4.258;2022-10-23T23:26:54;306.00;;;68.20;;
14692;SDS011;7435;50.842;4.258;2022-10-23T23:29:21;308.27;;;68.83;;
14692;SDS011;7435;50.842;4.258;2022-10-23T23:31:50;310.90;;;67.57;;
14692;SDS011;7435;50.842;4.258;2022-10-23T23:34:17;318.15;;;71.10;;
14692;SDS011;7435;50.842;4.258;2022-10-23T23:36:44;311.50;;;67.60;;
14692;SDS011;7435;50.842;4.258;2022-10-23T23:39:11;304.13;;;65.47;;
14692;SDS011;7435;50.842;4.258;2022-10-23T23:41:38;301.83;;;66.88;;
14692;SDS011;7435;50.842;4.258;2022-10-23T23:44:05;301.90;;;66.50;;
14692;SDS011;7435;50.842;4.258;2022-10-23T23:46:32;304.15;;;65.75;;
14692;SDS011;7435;50.842;4.258;2022-10-23T23:49:01;303.80;;;65.10;;
14692;SDS011;7435;50.842;4.258;2022-10-23T23:51:28;303.85;;;64.50;;
14692;SDS011;7435;50.842;4.258;2022-10-23T23:53:55;304.50;;;64.70;;
14692;SDS011;7435;50.842;4.258;2022-10-23T23:56:22;298.30;;;61.50;;
